Time;durP1;ratioP1;P1;durP2;ratioP2;P2;SDS_P1;SDS_P2;PMS_P1;PMS_P2;Temp;Humidity;BMP_temperature;BMP_pressure;BME280_temperature;BME280_humidity;BME280_pressure;Samples;Min_cycle;Max_cycle;Signal;HPM_P1;HPM_P2
2023/02/12 00:00:50;;;;;;;;;17.75;9.75;;;;;9.13;100.00;103515.94;5036161;28;65085;-78
2023/02/12 00:03:16;;;;;;;;;12.00;8.00;;;;;9.12;100.00;103517.66;5036879;28;45436;-78
2023/02/12 00:05:41;;;;;;;;;13.50;9.00;;;;;9.11;100.00;103519.34;5036455;28;45403;-78
2023/02/12 00:08:07;;;;;;;;;19.25;9.25;;;;;9.10;100.00;103515.03;5036229;28;45390;-78
2023/02/12 00:10:33;;;;;;;;;9.00;8.50;;;;;9.13;100.00;103516.81;5018779;28;46507;-78
2023/02/12 00:12:59;;;;;;;;;18.25;10.75;;;;;9.14;100.00;103515.97;5018796;28;45475;-78
2023/02/12 00:15:24;;;;;;;;;12.75;12.75;;;;;9.15;100.00;103512.50;5036743;28;63780;-78
2023/02/12 00:17:49;;;;;;;;;14.75;9.50;;;;;9.13;100.00;103495.13;5026691;28;51917;-78
2023/02/12 00:20:15;;;;;;;;;9.75;8.50;;;;;9.15;100.00;103496.91;5035874;28;71300;-79
2023/02/12 00:22:40;;;;;;;;;13.25;5.50;;;;;9.11;100.00;103497.69;5036390;28;45339;-78
2023/02/12 00:25:06;;;;;;;;;13.25;8.00;;;;;9.10;100.00;103498.53;5036130;28;58751;-78
2023/02/12 00:27:32;;;;;;;;;17.75;7.25;;;;;9.09;100.00;103497.66;5036587;28;45450;-78
2023/02/12 00:29:57;;;;;;;;;12.50;10.00;;;;;9.07;100.00;103491.56;5036397;28;46473;-78
2023/02/12 00:32:23;;;;;;;;;17.00;6.00;;;;;9.09;100.00;103500.25;5035597;28;67896;-78
2023/02/12 00:34:48;;;;;;;;;17.00;8.25;;;;;9.09;100.00;103495.06;5036541;28;45469;-78
2023/02/12 00:37:14;;;;;;;;;16.50;9.00;;;;;9.13;100.00;103500.34;5018198;28;45388;-78
2023/02/12 00:39:39;;;;;;;;;12.00;6.50;;;;;9.09;100.00;103496.78;5036492;28;46479;-78
2023/02/12 00:42:04;;;;;;;;;10.75;6.00;;;;;9.09;100.00;103502.00;5035771;28;60229;-78
2023/02/12 00:44:30;;;;;;;;;6.50;6.00;;;;;9.08;100.00;103497.63;5035879;28;59854;-78
2023/02/12 00:46:56;;;;;;;;;12.00;6.75;;;;;9.07;100.00;103507.16;5036335;28;45370;-78
2023/02/12 00:49:22;;;;;;;;;11.75;9.00;;;;;9.04;100.00;103501.00;5036000;28;47043;-78
2023/02/12 00:51:48;;;;;;;;;17.25;9.00;;;;;9.02;100.00;103497.50;5035846;28;45719;-78
2023/02/12 00:54:13;;;;;;;;;13.00;7.25;;;;;8.99;100.00;103492.22;5035310;28;64583;-78
2023/02/12 00:56:39;;;;;;;;;10.50;7.50;;;;;9.02;100.00;103497.50;5036186;28;45291;-78
2023/02/12 00:59:04;;;;;;;;;9.00;6.75;;;;;9.05;100.00;103493.25;5035489;28;66139;-78
2023/02/12 01:01:29;;;;;;;;;13.00;8.00;;;;;9.04;100.00;103496.69;5018030;28;47462;-78
2023/02/12 01:03:54;;;;;;;;;11.00;7.25;;;;;9.06;100.00;103491.53;5035430;28;66464;-78
2023/02/12 01:06:20;;;;;;;;;13.00;9.25;;;;;9.06;100.00;103488.91;5035130;28;59614;-78
2023/02/12 01:08:45;;;;;;;;;12.00;9.00;;;;;9.08;100.00;103492.44;5035291;28;51938;-78
2023/02/12 01:11:11;;;;;;;;;14.00;10.00;;;;;9.05;100.00;103489.78;5017002;28;68509;-78
2023/02/12 01:13:37;;;;;;;;;18.50;10.00;;;;;9.06;100.00;103491.53;5036001;28;45449;-78
2023/02/12 01:16:07;;;;;;;;;22.00;12.25;;;;;9.02;100.00;103490.56;5035046;28;65875;-78
2023/02/12 01:18:33;;;;;;;;;16.50;13.75;;;;;8.99;100.00;103482.75;5034270;28;46465;-78
2023/02/12 01:20:58;;;;;;;;;15.50;9.75;;;;;9.00;100.00;103488.81;5035573;28;45356;-78
2023/02/12 01:23:25;;;;;;;;;16.00;8.50;;;;;8.99;100.00;103489.63;5036002;28;45354;-78
2023/02/12 01:25:50;;;;;;;;;18.00;11.50;;;;;8.97;100.00;103484.44;5035586;28;45399;-78
2023/02/12 01:28:15;;;;;;;;;18.00;9.75;;;;;8.95;100.00;103488.69;5034923;28;72604;-78
2023/02/12 01:30:41;;;;;;;;;17.50;11.25;;;;;8.94;100.00;103489.53;5034730;28;62176;-79
2023/02/12 01:33:06;;;;;;;;;21.75;12.75;;;;;8.90;100.00;103478.22;5034787;28;65553;-78
2023/02/12 01:35:31;;;;;;;;;19.00;13.25;;;;;8.90;100.00;103490.31;5035121;28;45455;-78
2023/02/12 01:37:57;;;;;;;;;22.50;12.50;;;;;8.91;100.00;103484.28;5034630;28;72926;-78
2023/02/12 01:40:23;;;;;;;;;20.00;11.25;;;;;8.93;100.00;103489.50;5035439;28;45402;-78
2023/02/12 01:42:48;;;;;;;;;16.75;13.25;;;;;8.93;100.00;103486.91;5035605;28;45249;-78
2023/02/12 01:45:13;;;;;;;;;19.75;11.75;;;;;8.93;100.00;103494.69;5016544;28;64630;-78
2023/02/12 01:47:44;;;;;;;;;21.00;11.33;;;;;8.94;100.00;103488.69;5035433;28;45403;-78
2023/02/12 01:50:15;;;;;;;;;21.00;10.00;;;;;8.94;100.00;103488.69;5034902;28;45497;-78
2023/02/12 01:52:44;;;;;;;;;13.00;9.00;;;;;8.93;100.00;103487.78;5035155;28;45493;-78
2023/02/12 01:55:10;;;;;;;;;13.50;12.00;;;;;8.91;100.00;103485.16;5035374;28;45434;-78
2023/02/12 01:57:38;;;;;;;;;10.50;6.25;;;;;8.88;100.00;103476.44;5034232;28;74581;-78
2023/02/12 02:00:08;;;;;;;;;9.00;7.25;;;;;8.87;100.00;103477.25;5035121;28;45252;-78
2023/02/12 02:02:35;;;;;;;;;10.00;6.75;;;;;8.84;100.00;103475.50;5019575;28;45350;-78
2023/02/12 02:05:02;;;;;;;;;15.00;8.50;;;;;8.86;100.00;103476.41;5025853;28;45419;-78
2023/02/12 02:07:28;;;;;;;;;13.00;9.50;;;;;8.86;100.00;103471.19;5037818;28;45467;-78
2023/02/12 02:09:54;;;;;;;;;14.00;5.25;;;;;8.84;100.00;103480.69;5017428;28;45409;-78
2023/02/12 02:15:05;;;;;;;;;2.50;2.00;;;;;8.82;100.00;103481.47;5020193;28;45344;-78
2023/02/12 02:17:46;;;;;;;;;1.00;1.00;;;;;8.81;100.00;103477.13;5034758;28;47110;-78
2023/02/12 02:20:52;;;;;;;;;1.00;1.00;;;;;8.81;100.00;103478.00;5017213;28;45662;-78
2023/02/12 02:23:40;;;;;;;;;1.00;1.00;;;;;8.81;100.00;103479.72;5035070;28;45223;-78
2023/02/12 02:26:32;;;;;;;;;0.00;0.00;;;;;8.80;100.00;103476.22;4954144;28;45451;-79
2023/02/12 02:29:29;;;;;;;;;2.75;1.00;;;;;8.86;100.00;103472.94;4953906;28;46654;-78
2023/02/12 02:32:06;;;;;;;;;1.00;1.00;;;;;8.90;100.00;103478.22;4956867;28;45717;-78
2023/02/12 02:34:39;;;;;;;;;2.00;1.00;;;;;8.93;100.00;103469.59;4957350;28;45377;-78
2023/02/12 02:37:17;;;;;;;;;0.75;0.75;;;;;8.97;100.00;103467.94;4957188;28;45458;-79
2023/02/12 02:39:51;;;;;;;;;2.00;0.75;;;;;9.02;100.00;103466.31;4940956;28;47248;-78
2023/02/12 02:42:24;;;;;;;;;3.25;0.00;;;;;9.07;100.00;103468.19;4941196;28;45410;-78
2023/02/12 02:45:24;;;;;;;;;2.75;2.00;;;;;9.13;100.00;103466.56;4941001;28;45470;-78
2023/02/12 02:47:55;;;;;;;;;1.00;1.00;;;;;9.18;100.00;103464.94;4946277;28;45700;-78
2023/02/12 02:50:23;;;;;;;;;1.50;1.00;;;;;9.24;100.00;103467.66;4940624;28;45306;-78
2023/02/12 02:52:56;;;;;;;;;1.50;1.00;;;;;9.21;100.00;103467.56;4956840;28;45789;-78
2023/02/12 02:55:25;;;;;;;;;3.00;0.00;;;;;9.25;100.00;103472.03;4940873;28;45651;-78
2023/02/12 02:58:00;;;;;;;;;1.00;1.00;;;;;9.28;100.00;103467.72;4940805;28;45484;-78
2023/02/12 03:00:35;;;;;;;;;1.00;1.00;;;;;9.30;100.00;103468.66;4940302;28;45571;-78
2023/02/12 03:03:09;;;;;;;;;2.00;1.00;;;;;9.37;100.00;103469.66;4983733;28;45384;-77
2023/02/12 03:05:39;;;;;;;;;1.75;0.00;;;;;9.42;100.00;103459.34;5000444;28;45483;-78
2023/02/12 03:08:11;;;;;;;;;2.00;0.00;;;;;9.41;100.00;103458.44;5018046;28;45522;-78
2023/02/12 03:10:43;;;;;;;;;2.00;1.00;;;;;9.44;100.00;103457.66;5000070;28;46549;-78
2023/02/12 03:13:20;;;;;;;;;0.75;0.75;;;;;9.45;100.00;103442.09;4999958;28;45439;-77
2023/02/12 03:15:59;;;;;;;;;0.00;0.00;;;;;9.46;100.00;103442.97;4999955;28;45324;-78
2023/02/12 03:18:28;;;;;;;;;0.00;0.00;;;;;9.47;100.00;103444.69;5020008;28;45287;-78
2023/02/12 03:20:58;;;;;;;;;1.50;0.50;;;;;9.43;100.00;103428.16;5037765;28;45476;-78
2023/02/12 03:23:29;;;;;;;;;1.75;0.00;;;;;9.49;100.00;103432.63;5019820;28;45621;-78
2023/02/12 03:25:58;;;;;;;;;2.00;0.00;;;;;9.49;100.00;103436.09;5019779;28;45784;-78
2023/02/12 03:28:27;;;;;;;;;1.00;0.25;;;;;9.52;100.00;103437.88;5019809;28;45392;-78
2023/02/12 03:31:06;;;;;;;;;0.75;0.00;;;;;9.47;100.00;103423.88;5037082;28;45346;-78
2023/02/12 03:34:04;;;;;;;;;1.00;1.00;;;;;9.50;100.00;103423.97;5019648;28;45385;-78
2023/02/12 03:36:38;;;;;;;;;1.00;0.00;;;;;9.56;100.00;103429.25;5019441;28;45486;-78
2023/02/12 03:39:21;;;;;;;;;2.75;0.50;;;;;9.62;100.00;103431.09;5037324;28;45342;-78
2023/02/12 03:41:49;;;;;;;;;2.00;0.75;;;;;9.61;100.00;103425.03;5018277;28;46644;-78
2023/02/12 03:44:43;;;;;;;;;1.50;1.00;;;;;9.65;100.00;103426.81;5019091;28;45518;-78
2023/02/12 03:47:34;;;;;;;;;6.00;2.00;;;;;9.63;100.00;103417.25;5019919;28;45406;-78
2023/02/12 03:50:08;;;;;;;;;1.25;1.00;;;;;9.59;100.00;103418.94;4966216;28;45342;-78
2023/02/12 03:52:33;;;;;;;;;1.00;1.00;;;;;9.60;100.00;103422.41;4957827;28;46653;-78
2023/02/12 03:54:59;;;;;;;;;2.00;2.00;;;;;9.55;100.00;103421.47;4939774;28;45460;-78
2023/02/12 03:57:29;;;;;;;;;4.50;1.00;;;;;9.58;100.00;103431.91;4939122;28;65450;-78
2023/02/12 03:59:56;;;;;;;;;5.75;1.00;;;;;9.58;100.00;103424.09;4955780;28;45492;-78
2023/02/12 04:02:21;;;;;;;;;2.25;1.00;;;;;9.56;100.00;103423.19;4939726;28;46400;-78
2023/02/12 04:04:47;;;;;;;;;3.00;3.00;;;;;9.57;100.00;103422.38;4955288;28;64149;-78
2023/02/12 04:07:12;;;;;;;;;1.00;1.00;;;;;9.53;100.00;103420.53;4955959;28;45421;-78
2023/02/12 04:09:38;;;;;;;;;2.75;2.00;;;;;9.54;100.00;103419.69;4939497;28;58361;-78
2023/02/12 04:12:22;;;;;;;;;5.00;2.00;;;;;9.54;100.00;103424.91;4955254;28;59272;-78
2023/02/12 04:15:28;;;;;;;;;9.25;2.50;;;;;9.50;100.00;103424.81;4955669;28;45658;-78
2023/02/12 04:18:16;;;;;;;;;6.25;3.25;;;;;9.45;100.00;103426.50;4936687;28;45463;-78
2023/02/12 04:20:53;;;;;;;;;3.00;3.00;;;;;9.43;100.00;103422.97;4917284;28;45518;-78
2023/02/12 04:23:26;;;;;;;;;4.25;3.25;;;;;9.40;100.00;103428.13;4917035;28;47431;-79
2023/02/12 04:26:16;;;;;;;;;5.50;2.75;;;;;9.36;100.00;103430.63;4917605;28;45871;-78
2023/02/12 04:28:51;;;;;;;;;1.75;0.00;;;;;9.35;100.00;103427.16;4939189;28;45642;-78
2023/02/12 04:31:20;;;;;;;;;7.50;5.00;;;;;9.32;100.00;103421.88;4939328;28;45301;-78
2023/02/12 04:33:51;;;;;;;;;5.50;5.50;;;;;9.28;100.00;103426.13;4955397;28;45524;-78
2023/02/12 04:36:24;;;;;;;;;12.25;6.00;;;;;9.23;100.00;103434.69;4939261;28;46043;-78
2023/02/12 04:38:53;;;;;;;;;6.75;4.00;;;;;9.23;100.00;103433.00;4939513;28;45429;-78
2023/02/12 04:41:18;;;;;;;;;6.75;6.50;;;;;9.20;100.00;103432.94;4939331;28;45492;-78
2023/02/12 04:43:44;;;;;;;;;6.00;5.50;;;;;9.17;100.00;103432.84;4938616;28;49072;-78
2023/02/12 04:46:09;;;;;;;;;10.50;7.00;;;;;9.19;100.00;103435.47;4955408;28;45593;-78
2023/02/12 04:48:42;;;;;;;;;7.25;6.75;;;;;9.16;100.00;103428.53;4954889;28;54735;-78
2023/02/12 04:51:08;;;;;;;;;5.50;1.00;;;;;9.17;100.00;103438.06;4952656;28;45421;-78
2023/02/12 04:53:34;;;;;;;;;12.00;10.50;;;;;9.15;100.00;103441.47;5010466;28;69859;-78
2023/02/12 04:55:59;;;;;;;;;11.50;8.00;;;;;9.17;100.00;103442.38;4995560;28;71549;-78
2023/02/12 04:58:24;;;;;;;;;10.00;9.00;;;;;9.13;100.00;103432.78;4996072;28;46479;-78
2023/02/12 05:00:49;;;;;;;;;13.00;8.50;;;;;9.13;100.00;103441.44;4996411;28;45405;-78
2023/02/12 05:03:15;;;;;;;;;15.75;7.00;;;;;9.13;100.00;103440.56;4995681;28;67402;-78
2023/02/12 05:05:40;;;;;;;;;10.00;8.00;;;;;9.13;100.00;103436.25;4995531;28;68042;-78
2023/02/12 05:08:05;;;;;;;;;9.00;7.50;;;;;9.13;100.00;103431.03;4996393;28;45394;-78
2023/02/12 05:10:31;;;;;;;;;1.25;0.00;;;;;9.13;100.00;103430.19;4996388;28;45545;-78
2023/02/12 05:12:56;;;;;;;;;12.75;8.50;;;;;9.12;100.00;103431.91;4995131;28;70050;-78
2023/02/12 05:15:22;;;;;;;;;12.75;10.00;;;;;9.12;100.00;103434.50;4996077;28;49422;-78
2023/02/12 05:17:47;;;;;;;;;14.00;10.25;;;;;9.13;100.00;103437.97;4996435;28;45401;-78
2023/02/12 05:20:13;;;;;;;;;14.00;10.00;;;;;9.09;100.00;103424.91;5012834;28;45264;-78
2023/02/12 05:22:38;;;;;;;;;13.00;10.00;;;;;9.12;100.00;103429.31;5014563;28;45584;-78
2023/02/12 05:25:04;;;;;;;;;16.25;8.50;;;;;9.13;100.00;103435.38;5015675;28;45403;-78
2023/02/12 05:27:29;;;;;;;;;15.50;9.50;;;;;9.13;100.00;103430.19;5015620;28;45325;-78
2023/02/12 05:29:55;;;;;;;;;12.25;7.25;;;;;9.13;100.00;103432.78;5014529;28;45301;-78
2023/02/12 05:32:21;;;;;;;;;14.00;8.00;;;;;9.09;100.00;103424.03;5015678;28;46274;-79
2023/02/12 05:34:46;;;;;;;;;14.25;9.75;;;;;9.07;100.00;103428.34;5016127;28;45385;-77
2023/02/12 05:37:11;;;;;;;;;10.00;7.75;;;;;9.08;100.00;103423.16;5036034;28;67753;-78
2023/02/12 05:39:37;;;;;;;;;18.00;10.50;;;;;9.09;100.00;103426.63;5016431;28;69119;-78
2023/02/12 05:42:02;;;;;;;;;12.75;9.50;;;;;9.10;100.00;103425.78;5015219;28;46037;-79
2023/02/12 05:44:28;;;;;;;;;11.50;9.00;;;;;9.11;100.00;103422.34;5015687;28;45372;-79
2023/02/12 05:46:53;;;;;;;;;13.25;9.25;;;;;9.10;100.00;103429.28;5015322;28;53485;-78
2023/02/12 05:49:18;;;;;;;;;14.25;10.00;;;;;9.08;100.00;103417.97;5015476;28;45415;-78
2023/02/12 05:51:43;;;;;;;;;17.75;9.75;;;;;9.05;100.00;103414.44;5014553;28;70239;-78
2023/02/12 05:54:09;;;;;;;;;16.00;9.75;;;;;9.07;100.00;103423.13;5029439;28;65369;-78
2023/02/12 05:56:37;;;;;;;;;11.50;10.50;;;;;9.06;100.00;103413.56;5035291;28;45371;-78
2023/02/12 05:59:05;;;;;;;;;19.25;10.75;;;;;9.07;100.00;103420.53;5017725;28;45304;-78
2023/02/12 06:01:36;;;;;;;;;13.25;9.75;;;;;9.07;100.00;103417.94;5017443;28;45280;-78
2023/02/12 06:04:03;;;;;;;;;13.75;10.00;;;;;9.05;100.00;103419.63;5017760;28;45486;-78
2023/02/12 06:06:30;;;;;;;;;12.25;10.25;;;;;9.04;100.00;103410.06;5038735;28;45388;-78
2023/02/12 06:08:57;;;;;;;;;13.50;9.50;;;;;9.04;100.00;103415.25;5020875;28;45370;-77
2023/02/12 06:11:22;;;;;;;;;14.75;10.75;;;;;9.04;100.00;103417.88;5038845;28;46593;-78
2023/02/12 06:13:48;;;;;;;;;15.00;10.00;;;;;9.04;100.00;103415.25;5019726;28;72037;-78
2023/02/12 06:16:25;;;;;;;;;8.50;7.50;;;;;9.06;100.00;103406.69;5038888;28;45407;-78
2023/02/12 06:18:51;;;;;;;;;12.25;9.00;;;;;9.06;100.00;103417.06;5038496;28;47821;-78
2023/02/12 06:21:18;;;;;;;;;12.00;9.50;;;;;9.05;100.00;103404.03;5038486;28;46407;-78
2023/02/12 06:23:44;;;;;;;;;14.50;10.50;;;;;9.04;100.00;103410.06;5038066;28;45567;-78
2023/02/12 06:26:09;;;;;;;;;11.00;9.25;;;;;9.05;100.00;103414.44;5038450;28;45969;-78
2023/02/12 06:28:34;;;;;;;;;14.00;7.75;;;;;9.05;100.00;103412.69;5038521;28;45240;-78
2023/02/12 06:31:00;;;;;;;;;15.25;10.00;;;;;9.08;100.00;103396.28;5037404;28;72532;-78
2023/02/12 06:33:25;;;;;;;;;9.00;6.50;;;;;9.07;100.00;103415.34;5037554;28;63221;-78
2023/02/12 06:35:51;;;;;;;;;13.00;6.00;;;;;9.04;100.00;103417.88;5037450;28;65543;-78
2023/02/12 06:38:16;;;;;;;;;17.25;9.75;;;;;9.02;100.00;103415.22;5038043;28;45338;-78
2023/02/12 06:40:41;;;;;;;;;13.50;9.00;;;;;8.99;100.00;103411.69;5037363;28;72990;-78
2023/02/12 06:43:07;;;;;;;;;11.00;8.00;;;;;8.99;100.00;103411.69;5037381;28;68373;-78
2023/02/12 06:45:33;;;;;;;;;11.00;8.75;;;;;9.01;100.00;103400.50;5037426;28;65435;-78
2023/02/12 06:47:58;;;;;;;;;10.50;7.25;;;;;9.03;100.00;103401.41;5020327;28;45642;-78
2023/02/12 06:50:24;;;;;;;;;9.50;6.75;;;;;9.02;100.00;103415.22;5037628;28;51372;-78
2023/02/12 06:52:49;;;;;;;;;12.75;6.75;;;;;9.03;100.00;103411.81;5019644;28;45781;-78
2023/02/12 06:55:15;;;;;;;;;12.75;6.75;;;;;9.03;100.00;103410.94;5038059;28;45414;-78
2023/02/12 06:57:40;;;;;;;;;14.50;8.75;;;;;9.00;100.00;103416.94;5037976;28;45513;-78
2023/02/12 07:00:06;;;;;;;;;16.75;11.25;;;;;9.02;100.00;103422.16;5037808;28;46318;-78
2023/02/12 07:02:32;;;;;;;;;13.50;9.00;;;;;9.02;100.00;103422.16;5037676;28;45967;-78
2023/02/12 07:04:57;;;;;;;;;14.00;10.00;;;;;9.01;100.00;103428.22;5037980;28;45311;-78
2023/02/12 07:07:22;;;;;;;;;6.00;5.75;;;;;8.97;100.00;103424.69;5037109;28;59538;-78
2023/02/12 07:09:48;;;;;;;;;9.00;9.00;;;;;8.98;100.00;103433.34;5036774;28;71717;-78
2023/02/12 07:12:13;;;;;;;;;4.75;1.00;;;;;9.00;100.00;103436.84;5037559;28;45692;-78
2023/02/12 07:14:38;;;;;;;;;9.00;5.00;;;;;8.97;100.00;103435.06;5037553;28;56715;-78
2023/02/12 07:17:04;;;;;;;;;6.00;2.25;;;;;8.97;100.00;103440.25;5036953;28;58564;-78
2023/02/12 07:19:30;;;;;;;;;3.75;2.50;;;;;8.97;100.00;103434.16;5037499;28;45274;-78
2023/02/12 07:21:56;;;;;;;;;5.50;4.75;;;;;9.00;100.00;103437.72;5037209;28;45898;-78
2023/02/12 07:24:21;;;;;;;;;4.00;4.00;;;;;9.04;100.00;103446.44;5049476;28;45280;-78
2023/02/12 07:26:46;;;;;;;;;11.25;5.50;;;;;9.07;100.00;103451.72;5022239;28;67024;-79
2023/02/12 07:29:12;;;;;;;;;8.50;1.50;;;;;9.02;100.00;103451.59;5036860;28;71798;-78
2023/02/12 07:31:38;;;;;;;;;6.00;6.00;;;;;9.00;100.00;103448.09;5037496;28;45493;-78
2023/02/12 07:34:03;;;;;;;;;5.25;4.00;;;;;9.01;100.00;103451.59;5036772;28;66336;-78
2023/02/12 07:36:30;;;;;;;;;5.00;5.00;;;;;9.00;100.00;103455.03;5037153;28;45312;-78
2023/02/12 07:38:56;;;;;;;;;6.50;2.75;;;;;8.98;100.00;103460.19;5019489;28;47332;-78
2023/02/12 07:41:24;;;;;;;;;6.00;5.00;;;;;8.97;100.00;103453.25;5037427;28;45418;-78
2023/02/12 07:43:54;;;;;;;;;8.50;3.50;;;;;8.95;100.00;103456.63;5037453;28;45287;-78
2023/02/12 07:46:31;;;;;;;;;8.50;5.75;;;;;8.97;100.00;103457.56;5037414;28;45466;-78
2023/02/12 07:48:58;;;;;;;;;6.25;5.00;;;;;8.99;100.00;103459.34;5037165;28;46616;-78
2023/02/12 07:51:25;;;;;;;;;3.25;3.25;;;;;9.02;100.00;103455.94;5036649;28;45316;-78
2023/02/12 07:53:50;;;;;;;;;7.75;4.75;;;;;9.03;100.00;103455.09;5019331;28;45255;-78
2023/02/12 07:56:18;;;;;;;;;9.00;5.00;;;;;9.02;100.00;103454.19;5036204;28;69601;-78
2023/02/12 07:58:45;;;;;;;;;9.50;5.00;;;;;9.03;100.00;103453.38;5036924;28;46329;-78
2023/02/12 08:01:21;;;;;;;;;10.00;6.00;;;;;9.07;100.00;103449.97;5019105;28;45991;-78
2023/02/12 08:03:48;;;;;;;;;12.75;9.00;;;;;9.09;100.00;103455.22;5037153;28;45332;-78
2023/02/12 08:06:20;;;;;;;;;5.00;5.00;;;;;9.09;100.00;103463.00;5018753;28;45481;-78
2023/02/12 08:08:46;;;;;;;;;10.50;3.25;;;;;9.08;100.00;103464.75;5018934;28;45483;-78
2023/02/12 08:11:13;;;;;;;;;4.50;3.75;;;;;9.04;100.00;103457.72;5036687;28;45369;-78
2023/02/12 08:13:39;;;;;;;;;5.00;3.00;;;;;9.08;100.00;103458.66;5036852;28;45387;-78
2023/02/12 08:16:07;;;;;;;;;2.00;1.50;;;;;9.07;100.00;103456.91;5036741;28;45476;-78
2023/02/12 08:18:33;;;;;;;;;8.50;4.00;;;;;9.04;100.00;103465.50;5036522;28;45445;-78
2023/02/12 08:21:06;;;;;;;;;6.75;2.50;;;;;9.05;100.00;103461.22;5018570;28;45389;-78
2023/02/12 08:23:32;;;;;;;;;10.75;5.00;;;;;9.07;100.00;103469.91;5036721;28;45477;-78
2023/02/12 08:26:05;;;;;;;;;6.50;5.00;;;;;9.10;100.00;103468.25;5018762;28;45315;-78
2023/02/12 08:28:30;;;;;;;;;9.75;5.75;;;;;9.13;100.00;103459.63;5035776;28;46350;-78
2023/02/12 08:31:00;;;;;;;;;5.25;3.50;;;;;9.15;100.00;103467.47;5018131;28;57862;-78
2023/02/12 08:33:26;;;;;;;;;5.00;3.00;;;;;9.15;100.00;103470.06;5036603;28;45456;-78
2023/02/12 08:36:00;;;;;;;;;5.00;2.00;;;;;9.13;100.00;103469.16;5035221;28;66133;-79
2023/02/12 08:38:25;;;;;;;;;4.50;3.25;;;;;9.16;100.00;103474.44;5018463;28;46459;-77
2023/02/12 08:40:50;;;;;;;;;9.50;5.25;;;;;9.20;100.00;103477.09;5035396;28;70683;-78
2023/02/12 08:43:16;;;;;;;;;3.25;3.25;;;;;9.22;100.00;103478.00;5036241;28;45476;-78
2023/02/12 08:45:41;;;;;;;;;10.00;2.50;;;;;9.28;100.00;103477.25;5035540;28;62891;-78
2023/02/12 08:48:07;;;;;;;;;7.25;5.00;;;;;9.33;100.00;103479.97;5036172;28;46238;-78
2023/02/12 08:50:33;;;;;;;;;7.50;2.25;;;;;9.34;100.00;103476.50;5034843;28;64421;-79
2023/02/12 08:52:58;;;;;;;;;3.25;2.00;;;;;9.40;100.00;103485.31;5035729;28;49397;-78
2023/02/12 08:55:23;;;;;;;;;3.50;3.50;;;;;9.41;100.00;103476.66;5035897;28;52909;-78
2023/02/12 08:57:49;;;;;;;;;7.50;4.50;;;;;9.46;100.00;103481.97;5035126;28;69539;-78
2023/02/12 09:00:14;;;;;;;;;7.00;3.50;;;;;9.46;100.00;103488.03;5035686;28;49414;-78
2023/02/12 09:02:40;;;;;;;;;6.25;2.00;;;;;9.50;100.00;103478.56;5036015;28;45387;-78
2023/02/12 09:05:05;;;;;;;;;6.50;3.50;;;;;9.55;100.00;103479.53;5035538;28;45245;-78
2023/02/12 09:07:30;;;;;;;;;5.00;2.75;;;;;9.59;100.00;103476.13;5035888;28;45318;-78
2023/02/12 09:09:56;;;;;;;;;1.50;1.00;;;;;9.63;100.00;103482.28;5034946;28;67137;-78
2023/02/12 09:12:21;;;;;;;;;2.75;2.75;;;;;9.66;100.00;103474.53;5044481;28;64983;-78
2023/02/12 09:14:46;;;;;;;;;5.00;2.00;;;;;9.72;100.00;103466.84;5036231;28;67554;-78
2023/02/12 09:17:12;;;;;;;;;4.50;2.00;;;;;9.75;100.00;103477.31;5035759;28;45415;-78
2023/02/12 09:19:37;;;;;;;;;4.00;2.00;;;;;9.75;100.00;103477.31;5017025;28;57155;-78
2023/02/12 09:22:02;;;;;;;;;6.00;2.00;;;;;9.73;100.00;103467.72;5035453;28;61021;-78
2023/02/12 09:24:28;;;;;;;;;2.50;2.00;;;;;9.72;100.00;103472.03;5035418;28;54445;-78
2023/02/12 09:26:53;;;;;;;;;3.50;2.00;;;;;9.71;100.00;103466.81;5035656;28;46076;-78
2023/02/12 09:29:18;;;;;;;;;1.00;1.00;;;;;9.73;100.00;103471.19;5035138;28;59957;-78
2023/02/12 09:31:44;;;;;;;;;3.00;1.25;;;;;9.66;100.00;103464.13;5034976;28;59946;-78
2023/02/12 09:34:09;;;;;;;;;4.00;2.00;;;;;9.71;100.00;103469.41;5035073;28;55513;-78
2023/02/12 09:36:35;;;;;;;;;4.25;1.00;;;;;9.73;100.00;103473.78;5035458;28;49086;-78
2023/02/12 09:39:01;;;;;;;;;8.50;2.75;;;;;9.76;100.00;103468.66;5035521;28;45372;-78
2023/02/12 09:41:44;;;;;;;;;6.25;3.00;;;;;9.80;100.00;103460.03;5039344;28;45343;-78
2023/02/12 09:44:34;;;;;;;;;5.75;4.00;;;;;9.85;100.00;103465.34;5039295;28;45562;-78
2023/02/12 09:47:14;;;;;;;;;5.50;4.00;;;;;9.92;100.00;103466.31;5037906;28;46602;-78
2023/02/12 09:50:03;;;;;;;;;6.75;5.50;;;;;10.01;100.00;103459.56;5021181;28;45390;-78
2023/02/12 09:52:29;;;;;;;;;9.00;5.00;;;;;10.08;100.00;103451.00;5038764;28;45375;-78
2023/02/12 09:54:55;;;;;;;;;4.50;3.00;;;;;10.09;100.00;103454.47;5038866;28;48014;-78
2023/02/12 09:57:33;;;;;;;;;5.75;2.25;;;;;10.14;100.00;103462.34;5020941;28;45897;-78
2023/02/12 10:00:05;;;;;;;;;9.00;5.00;;;;;10.18;100.00;103461.56;5021190;28;45792;-78
2023/02/12 10:02:34;;;;;;;;;5.00;2.00;;;;;10.19;100.00;103463.31;5038417;28;45237;-78
2023/02/12 10:05:00;;;;;;;;;5.25;2.00;;;;;10.21;100.00;103459.00;5021121;28;45414;-78
2023/02/12 10:07:42;;;;;;;;;2.50;1.00;;;;;10.24;100.00;103462.53;5019991;28;69839;-78
2023/02/12 10:10:44;;;;;;;;;2.00;2.00;;;;;10.27;100.00;103453.91;5038774;28;45732;-78
2023/02/12 10:13:27;;;;;;;;;4.50;2.00;;;;;10.30;100.00;103453.94;5038668;28;45362;-78
2023/02/12 10:16:22;;;;;;;;;2.50;2.50;;;;;10.38;100.00;103456.69;5038175;28;45445;-78
2023/02/12 10:19:12;;;;;;;;;2.00;2.00;;;;;10.48;100.00;103458.59;5038193;28;46294;-78
2023/02/12 10:21:43;;;;;;;;;2.25;2.25;;;;;10.59;100.00;103453.56;5038595;28;45856;-78
2023/02/12 10:24:14;;;;;;;;;3.00;1.00;;;;;10.62;100.00;103451.88;5038532;28;45260;-78
2023/02/12 10:26:48;;;;;;;;;2.00;2.00;;;;;10.67;100.00;103449.31;5038523;28;45321;-78
2023/02/12 10:29:21;;;;;;;;;2.25;1.25;;;;;10.71;100.00;103445.88;5020662;28;47088;-78
2023/02/12 10:31:56;;;;;;;;;2.00;2.00;;;;;10.74;100.00;103438.13;5037650;28;45385;-78
2023/02/12 10:34:24;;;;;;;;;6.00;2.00;;;;;10.81;100.00;103450.38;5020736;28;45382;-78
2023/02/12 10:36:53;;;;;;;;;4.25;2.00;;;;;10.85;100.00;103446.09;5038513;28;45298;-78
2023/02/12 10:39:22;;;;;;;;;5.00;4.00;;;;;10.89;100.00;103447.88;5020435;28;47435;-78
2023/02/12 10:42:08;;;;;;;;;6.25;3.00;;;;;10.97;100.00;103454.03;5020443;28;45319;-79
2023/02/12 10:44:34;;;;;;;;;4.50;2.00;;;;;11.03;100.00;103446.31;5037750;28;45280;-78
2023/02/12 10:47:00;;;;;;;;;6.00;2.00;;;;;11.04;100.00;103442.84;5037882;28;54120;-78
2023/02/12 10:49:25;;;;;;;;;4.50;2.75;;;;;11.07;100.00;103447.25;5036836;28;71886;-78
2023/02/12 10:52:09;;;;;;;;;2.00;1.00;;;;;11.14;100.00;103441.22;5019532;28;50781;-78
2023/02/12 10:54:34;;;;;;;;;2.00;2.00;;;;;11.19;100.00;103444.75;5037949;28;45482;-78
2023/02/12 10:57:21;;;;;;;;;5.00;2.00;;;;;11.20;100.00;103446.53;5038018;28;45470;-78
2023/02/12 10:59:48;;;;;;;;;8.50;4.00;;;;;11.25;100.00;103449.16;5021868;28;46602;-78
2023/02/12 11:02:32;;;;;;;;;4.00;3.00;;;;;11.34;100.00;103445.81;5023180;28;45701;-78
2023/02/12 11:05:00;;;;;;;;;2.50;1.00;;;;;11.39;100.00;103442.38;5038235;28;45324;-78
2023/02/12 11:07:26;;;;;;;;;2.75;1.00;;;;;11.40;100.00;103445.88;5020127;28;45463;-78
2023/02/12 11:09:54;;;;;;;;;2.25;1.00;;;;;11.37;100.00;103435.41;5037793;28;45491;-79
2023/02/12 11:12:25;;;;;;;;;9.50;2.25;;;;;11.33;100.00;103437.13;5037718;28;45409;-78
2023/02/12 11:14:57;;;;;;;;;5.00;2.75;;;;;11.30;100.00;103428.38;5019706;28;45480;-78
2023/02/12 11:17:37;;;;;;;;;3.00;3.00;;;;;11.26;100.00;103435.28;5019962;28;45419;-78
2023/02/12 11:20:20;;;;;;;;;6.00;2.50;;;;;11.29;100.00;103432.72;5019602;28;45480;-78
2023/02/12 11:22:53;;;;;;;;;5.50;3.00;;;;;11.29;100.00;103437.03;5019960;28;45374;-78
2023/02/12 11:25:19;;;;;;;;;6.00;5.25;;;;;11.27;100.00;103428.34;5037587;28;45375;-78
2023/02/12 11:28:04;;;;;;;;;7.00;5.00;;;;;11.26;100.00;103429.22;5037587;28;45546;-79
2023/02/12 11:30:29;;;;;;;;;4.75;2.25;;;;;11.26;100.00;103426.59;5019769;28;46677;-78
2023/02/12 11:33:13;;;;;;;;;2.00;2.00;;;;;11.23;100.00;103419.59;5037873;28;45356;-78